createdAt,value
2022-08-03T00:01:50.771Z,16.04
2022-08-03T00:04:17.508Z,16.03
2022-08-03T00:06:44.087Z,16.05
2022-08-03T00:09:11.152Z,16.00
2022-08-03T00:11:37.981Z,15.90
2022-08-03T00:14:05.674Z,15.88
2022-08-03T00:16:32.441Z,15.98
2022-08-03T00:19:00.997Z,16.07
2022-08-03T00:21:28.490Z,16.11
2022-08-03T00:23:55.070Z,16.13
2022-08-03T00:26:21.879Z,16.15
2022-08-03T00:28:49.018Z,16.02
2022-08-03T00:31:15.762Z,16.06
2022-08-03T00:33:59.034Z,16.19
2022-08-03T00:36:28.321Z,16.12
2022-08-03T00:38:55.390Z,16.29
2022-08-03T00:41:21.912Z,16.29
2022-08-03T00:43:48.490Z,16.45
2022-08-03T00:46:20.535Z,16.27
2022-08-03T00:48:51.052Z,16.35
2022-08-03T00:51:19.044Z,16.26
2022-08-03T00:53:45.970Z,16.21
2022-08-03T00:56:16.595Z,16.08
2022-08-03T00:58:46.886Z,16.08
2022-08-03T01:01:13.822Z,16.11
2022-08-03T01:03:40.681Z,16.06
2022-08-03T01:06:20.740Z,16.10
2022-08-03T01:09:12.743Z,16.14
2022-08-03T01:12:01.882Z,16.21
2022-08-03T01:14:42.295Z,16.28
2022-08-03T01:17:20.633Z,16.32
2022-08-03T01:19:58.527Z,16.36
2022-08-03T01:22:49.964Z,16.43
2022-08-03T01:25:22.402Z,16.49
2022-08-03T01:28:03.571Z,16.58
2022-08-03T01:30:31.864Z,16.59
2022-08-03T01:33:05.291Z,16.62
2022-08-03T01:35:48.911Z,16.58
2022-08-03T01:38:18.596Z,16.64
2022-08-03T01:40:47.053Z,16.84
2022-08-03T01:44:26.732Z,16.81
2022-08-03T01:46:04.367Z,16.82
2022-08-03T01:48:32.024Z,16.80
2022-08-03T01:50:59.598Z,16.84
2022-08-03T01:53:26.333Z,16.82
2022-08-03T01:55:55.068Z,16.87
2022-08-03T01:58:22.275Z,16.90
2022-08-03T02:00:49.792Z,16.86
2022-08-03T02:03:16.657Z,16.75
2022-08-03T02:05:45.397Z,16.85
2022-08-03T02:08:13.247Z,16.91
2022-08-03T02:10:41.738Z,16.91
2022-08-03T02:13:08.908Z,16.91
2022-08-03T02:15:37.295Z,16.95
2022-08-03T02:18:06.360Z,16.96
2022-08-03T02:20:36.210Z,16.92
2022-08-03T02:23:02.709Z,16.96
2022-08-03T02:25:30.411Z,16.97
2022-08-03T02:28:07.057Z,17.03
2022-08-03T02:30:40.063Z,17.15
2022-08-03T02:33:18.296Z,17.06
2022-08-03T02:35:45.276Z,16.99
2022-08-03T02:38:12.794Z,17.02
2022-08-03T02:40:39.659Z,17.02
2022-08-03T02:43:09.322Z,17.01
2022-08-03T02:45:37.121Z,17.18
2022-08-03T02:48:05.211Z,17.13
2022-08-03T02:50:32.397Z,17.00
2022-08-03T02:52:59.970Z,17.04
2022-08-03T02:55:27.438Z,17.06
2022-08-03T02:57:54.648Z,17.07
2022-08-03T03:00:27.365Z,17.14
2022-08-03T03:02:57.702Z,17.13
2022-08-03T03:05:54.518Z,17.23
2022-08-03T03:08:17.974Z,17.28
2022-08-03T03:10:46.013Z,17.34
2022-08-03T03:13:14.210Z,17.36
2022-08-03T03:15:41.837Z,17.37
2022-08-03T03:18:10.044Z,17.39
2022-08-03T03:20:37.639Z,17.38
2022-08-03T03:23:05.241Z,17.32
2022-08-03T03:25:32.518Z,17.42
2022-08-03T03:28:00.471Z,17.46
2022-08-03T03:30:28.025Z,17.44
2022-08-03T03:32:54.705Z,17.45
2022-08-03T03:35:21.460Z,17.41
2022-08-03T03:37:48.000Z,17.39
2022-08-03T03:40:14.727Z,17.28
2022-08-03T03:42:41.477Z,17.20
2022-08-03T03:45:08.631Z,17.21
2022-08-03T03:47:35.673Z,17.09
2022-08-03T03:50:03.819Z,17.16
2022-08-03T03:52:31.640Z,17.00
2022-08-03T03:55:01.026Z,17.04
2022-08-03T03:57:28.239Z,17.10
2022-08-03T03:59:54.737Z,17.10
2022-08-03T04:02:21.231Z,17.25
2022-08-03T04:05:06.246Z,17.28
2022-08-03T04:08:11.971Z,17.14
2022-08-03T04:10:58.684Z,17.28
2022-08-03T04:13:29.628Z,17.34
2022-08-03T04:15:56.900Z,17.34
2022-08-03T04:18:24.486Z,17.41
2022-08-03T04:20:51.996Z,17.46
2022-08-03T04:23:21.414Z,17.55
2022-08-03T04:25:49.207Z,17.64
2022-08-03T04:28:31.321Z,17.64
2022-08-03T04:30:59.895Z,17.75
2022-08-03T04:33:29.556Z,17.81
2022-08-03T04:36:02.636Z,17.94
2022-08-03T04:38:31.738Z,18.02
2022-08-03T04:40:59.496Z,18.07
2022-08-03T04:43:26.866Z,18.17
2022-08-03T04:45:54.002Z,18.27
2022-08-03T04:48:20.674Z,18.35
2022-08-03T04:50:47.919Z,18.38
2022-08-03T04:53:14.431Z,18.41
2022-08-03T04:55:40.937Z,18.48
2022-08-03T04:58:07.454Z,18.53
2022-08-03T05:00:33.954Z,18.55
2022-08-03T05:03:00.467Z,18.63
2022-08-03T05:05:27.016Z,18.62
2022-08-03T05:08:13.505Z,18.67
2022-08-03T05:10:40.560Z,18.66
2022-08-03T05:13:11.922Z,18.75
2022-08-03T05:15:42.941Z,18.69
2022-08-03T05:18:14.009Z,18.77
2022-08-03T05:20:41.147Z,18.80
2022-08-03T05:23:07.703Z,18.87
2022-08-03T05:25:34.248Z,18.88
2022-08-03T05:28:00.748Z,18.94
2022-08-03T05:30:33.571Z,19.01
2022-08-03T05:33:01.973Z,19.05
2022-08-03T05:35:57.883Z,19.11
2022-08-03T05:38:28.126Z,19.15
2022-08-03T05:41:22.096Z,19.16
2022-08-03T05:43:47.438Z,19.19
2022-08-03T05:46:14.033Z,19.26
2022-08-03T05:48:41.381Z,19.33
2022-08-03T05:51:11.193Z,19.33
2022-08-03T05:53:38.398Z,19.42
2022-08-03T05:56:13.800Z,19.55
2022-08-03T05:58:46.161Z,19.62
2022-08-03T06:01:12.871Z,19.73
2022-08-03T06:03:39.480Z,19.76
2022-08-03T06:06:06.098Z,19.87
2022-08-03T06:08:32.597Z,20.02
2022-08-03T06:10:59.096Z,20.05
2022-08-03T06:13:25.656Z,20.14
2022-08-03T06:15:52.153Z,20.25
2022-08-03T06:18:18.769Z,20.44
2022-08-03T06:20:45.327Z,20.46
2022-08-03T06:23:16.220Z,20.53
2022-08-03T06:25:44.566Z,20.53
2022-08-03T06:28:35.210Z,20.60
2022-08-03T06:30:58.961Z,20.66
2022-08-03T06:33:26.452Z,20.69
2022-08-03T06:36:12.971Z,20.73
2022-08-03T06:38:39.470Z,20.80
2022-08-03T06:41:06.067Z,20.86
2022-08-03T06:43:35.903Z,20.88
2022-08-03T06:46:02.530Z,20.99
2022-08-03T06:48:29.113Z,21.08
2022-08-03T06:50:55.653Z,21.20
2022-08-03T06:53:22.493Z,21.27
2022-08-03T06:55:54.267Z,21.29
2022-08-03T06:58:21.329Z,21.35
2022-08-03T07:00:48.045Z,21.40
2022-08-03T07:03:15.104Z,21.47
2022-08-03T07:05:42.321Z,21.49
2022-08-03T07:08:08.887Z,21.52
2022-08-03T07:10:35.397Z,21.76
2022-08-03T07:13:01.893Z,21.88
2022-08-03T07:15:55.632Z,21.90
2022-08-03T07:18:14.909Z,21.96
2022-08-03T07:20:41.449Z,22.13
2022-08-03T07:23:07.974Z,22.23
2022-08-03T07:25:34.619Z,22.29
2022-08-03T07:28:02.917Z,22.24
2022-08-03T07:30:29.433Z,22.26
2022-08-03T07:32:55.952Z,22.44
2022-08-03T07:35:24.704Z,22.69
2022-08-03T07:37:54.412Z,22.88
2022-08-03T07:40:22.200Z,22.83
2022-08-03T07:42:48.791Z,22.68
2022-08-03T07:45:19.743Z,22.68
2022-08-03T07:47:53.650Z,22.42
2022-08-03T07:50:21.278Z,22.43
2022-08-03T07:52:48.063Z,22.57
2022-08-03T07:55:14.568Z,22.55
2022-08-03T07:57:41.207Z,22.45
2022-08-03T08:00:14.355Z,22.40
2022-08-03T08:02:41.531Z,22.53
2022-08-03T08:05:08.571Z,22.72
2022-08-03T08:07:35.075Z,22.69
2022-08-03T08:12:28.140Z,22.28
2022-08-03T08:14:54.642Z,22.22
2022-08-03T08:17:21.167Z,22.50
2022-08-03T08:19:51.562Z,22.52
2022-08-03T08:22:26.544Z,22.62
2022-08-03T08:24:58.489Z,22.69
2022-08-03T08:28:29.372Z,22.55
2022-08-03T08:30:26.682Z,22.64
2022-08-03T08:32:58.322Z,22.99
2022-08-03T08:35:29.972Z,22.87
2022-08-03T08:37:56.612Z,22.89
2022-08-03T08:40:25.525Z,22.97
2022-08-03T08:42:58.502Z,22.79
2022-08-03T08:45:26.460Z,22.70
2022-08-03T08:47:59.763Z,22.76
2022-08-03T08:50:28.752Z,22.83
2022-08-03T08:52:56.231Z,23.05
2022-08-03T08:55:23.461Z,23.11
2022-08-03T08:57:53.181Z,23.46
2022-08-03T09:00:20.494Z,23.53
2022-08-03T09:02:47.230Z,23.61
2022-08-03T09:05:20.874Z,23.58
2022-08-03T09:07:54.279Z,23.51
2022-08-03T09:10:22.010Z,23.33
2022-08-03T09:12:51.258Z,23.42
2022-08-03T09:15:31.170Z,23.29
2022-08-03T09:18:00.254Z,23.52
2022-08-03T09:20:29.502Z,23.43
2022-08-03T09:22:58.914Z,23.66
2022-08-03T09:25:32.755Z,23.77
2022-08-03T09:28:11.094Z,23.66
2022-08-03T09:30:43.610Z,23.83
2022-08-03T09:33:12.366Z,23.86
2022-08-03T09:35:58.508Z,23.78
2022-08-03T09:38:28.336Z,23.69
2022-08-03T09:40:59.542Z,23.65
2022-08-03T09:43:27.558Z,23.76
2022-08-03T09:46:03.383Z,24.17
2022-08-03T09:48:31.107Z,23.92
2022-08-03T09:51:12.933Z,24.22
2022-08-03T09:53:58.773Z,24.52
2022-08-03T09:56:47.171Z,24.66
2022-08-03T09:59:26.707Z,24.70
2022-08-03T10:01:54.505Z,24.69
2022-08-03T10:04:21.556Z,24.52
2022-08-03T10:07:03.398Z,24.57
2022-08-03T10:09:30.014Z,24.41
2022-08-03T10:11:56.746Z,24.37
2022-08-03T10:14:23.679Z,24.44
2022-08-03T10:16:50.599Z,24.47
2022-08-03T10:19:17.420Z,24.89
2022-08-03T10:21:51.195Z,24.57
2022-08-03T10:24:21.201Z,24.40
2022-08-03T10:26:49.926Z,24.47
2022-08-03T10:29:27.373Z,24.77
2022-08-03T10:31:58.749Z,24.55
2022-08-03T10:34:34.989Z,24.29
2022-08-03T10:37:05.351Z,24.46
2022-08-03T10:39:32.082Z,24.41
2022-08-03T10:41:59.869Z,24.55
2022-08-03T10:44:37.714Z,24.78
2022-08-03T10:47:04.576Z,25.23
2022-08-03T10:49:34.830Z,24.71
2022-08-03T10:52:02.858Z,24.84
2022-08-03T10:55:10.076Z,25.07
2022-08-03T10:57:49.660Z,24.88
2022-08-03T11:00:18.503Z,24.99
2022-08-03T11:03:06.938Z,24.54
2022-08-03T11:05:38.467Z,24.84
2022-08-03T11:08:22.219Z,25.50
2022-08-03T11:10:50.155Z,25.53
2022-08-03T11:13:19.216Z,25.25
2022-08-03T11:15:47.862Z,25.60
2022-08-03T11:18:14.911Z,25.53
2022-08-03T11:20:59.472Z,25.91
2022-08-03T11:24:03.072Z,25.89
2022-08-03T11:26:33.308Z,25.51
2022-08-03T11:29:27.323Z,25.57
2022-08-03T11:31:53.711Z,25.11
2022-08-03T11:34:20.258Z,25.38
2022-08-03T11:37:21.742Z,25.22
2022-08-03T11:39:50.567Z,25.80
2022-08-03T11:42:23.135Z,25.02
2022-08-03T11:45:00.232Z,24.91
2022-08-03T11:47:28.118Z,25.13
2022-08-03T11:49:57.443Z,25.50
2022-08-03T11:52:26.930Z,25.73
2022-08-03T11:54:56.949Z,26.05
2022-08-03T11:58:58.211Z,26.39
2022-08-03T12:00:29.012Z,26.56
2022-08-03T12:03:12.134Z,26.56
2022-08-03T12:05:51.086Z,26.44
2022-08-03T12:08:39.271Z,25.93
2022-08-03T12:11:09.039Z,26.04
2022-08-03T12:14:44.868Z,25.30
2022-08-03T12:16:32.323Z,25.25
2022-08-03T12:18:59.867Z,25.60
2022-08-03T12:21:26.733Z,25.04
2022-08-03T12:24:00.199Z,24.71
2022-08-03T12:26:28.150Z,24.59
2022-08-03T12:28:54.699Z,24.72
2022-08-03T12:31:21.254Z,24.89
2022-08-03T12:33:58.933Z,25.02
2022-08-03T12:36:26.575Z,25.08
2022-08-03T12:39:02.302Z,25.17
2022-08-03T12:41:35.134Z,24.89
2022-08-03T12:44:06.841Z,24.93
2022-08-03T12:46:41.656Z,24.87
2022-08-03T12:49:14.998Z,24.57
2022-08-03T12:51:44.494Z,24.46
2022-08-03T12:54:17.043Z,24.68
2022-08-03T12:57:05.952Z,24.80
2022-08-03T12:59:45.204Z,25.00
2022-08-03T13:02:23.620Z,25.19
2022-08-03T13:04:51.083Z,25.33
2022-08-03T13:07:18.377Z,25.31
2022-08-03T13:09:48.233Z,25.76
2022-08-03T13:12:21.000Z,25.52
2022-08-03T13:14:49.540Z,25.97
2022-08-03T13:17:19.588Z,25.62
2022-08-03T13:19:47.203Z,25.52
2022-08-03T13:22:22.172Z,25.44
2022-08-03T13:24:50.645Z,25.72
2022-08-03T13:28:01.404Z,25.75
2022-08-03T13:30:04.847Z,25.73
2022-08-03T13:32:31.352Z,25.73
2022-08-03T13:34:58.158Z,25.65
2022-08-03T13:37:25.362Z,25.63
2022-08-03T13:39:58.787Z,25.98
2022-08-03T13:42:31.416Z,25.73
2022-08-03T13:44:58.882Z,25.78
2022-08-03T13:47:25.842Z,26.06
2022-08-03T13:50:00.447Z,26.45
2022-08-03T13:52:30.247Z,26.71
2022-08-03T13:54:56.750Z,26.51
2022-08-03T13:58:04.253Z,26.86
2022-08-03T14:00:10.310Z,26.69
2022-08-03T14:02:37.097Z,26.33
2022-08-03T14:05:03.810Z,26.07
2022-08-03T14:07:30.303Z,26.50
2022-08-03T14:09:56.924Z,26.28
2022-08-03T14:12:23.432Z,26.63
2022-08-03T14:14:50.007Z,26.84
2022-08-03T14:17:16.740Z,26.78
2022-08-03T14:19:53.503Z,26.54
2022-08-03T14:22:20.990Z,27.12
2022-08-03T14:24:47.511Z,26.97
2022-08-03T14:27:15.789Z,27.27
2022-08-03T14:29:42.304Z,26.73
2022-08-03T14:32:11.974Z,26.55
2022-08-03T14:34:39.449Z,26.48
2022-08-03T14:37:05.939Z,26.39
2022-08-03T14:42:20.302Z,26.24
2022-08-03T14:44:46.974Z,25.65
2022-08-03T14:47:13.555Z,25.61
2022-08-03T14:50:31.257Z,25.75
2022-08-03T14:52:26.551Z,25.77
2022-08-03T14:54:53.109Z,25.74
2022-08-03T14:57:19.839Z,26.09
2022-08-03T14:59:55.611Z,26.03
2022-08-03T15:02:24.719Z,25.63
2022-08-03T15:04:51.976Z,25.76
2022-08-03T15:07:19.086Z,25.76
2022-08-03T15:09:45.766Z,25.45
2022-08-03T15:12:12.297Z,25.24
2022-08-03T15:14:38.813Z,25.24
2022-08-03T15:17:05.515Z,24.85
2022-08-03T15:20:00.341Z,24.49
2022-08-03T15:22:20.463Z,24.56
2022-08-03T15:24:47.389Z,24.90
2022-08-03T15:27:13.901Z,25.13
2022-08-03T15:30:04.741Z,25.32
2022-08-03T15:32:27.082Z,25.56
2022-08-03T15:34:55.242Z,25.96
2022-08-03T15:37:21.822Z,26.30
2022-08-03T15:39:59.328Z,25.62
2022-08-03T15:42:30.657Z,25.41
2022-08-03T15:44:57.299Z,24.74
2022-08-03T15:47:23.821Z,24.52
2022-08-03T15:49:50.316Z,24.60
2022-08-03T15:52:16.842Z,24.52
2022-08-03T15:54:43.374Z,24.27
2022-08-03T15:57:09.873Z,24.46
2022-08-03T15:59:36.560Z,24.30
2022-08-03T16:02:03.234Z,24.78
2022-08-03T16:04:29.808Z,25.14
2022-08-03T16:06:56.309Z,25.33
2022-08-03T16:09:43.516Z,24.87
2022-08-03T16:12:11.832Z,24.71
2022-08-03T16:14:51.855Z,24.62
2022-08-03T16:17:20.202Z,24.76
2022-08-03T16:19:46.911Z,24.98
2022-08-03T16:22:14.479Z,24.83
2022-08-03T16:24:41.214Z,24.53
2022-08-03T16:27:17.651Z,24.41
2022-08-03T16:29:54.372Z,24.55
2022-08-03T16:32:21.019Z,24.54
2022-08-03T16:34:48.163Z,24.53
2022-08-03T16:37:37.789Z,24.35
2022-08-03T16:40:02.501Z,24.77
2022-08-03T16:42:29.040Z,24.97
2022-08-03T16:44:55.661Z,25.02
2022-08-03T16:47:22.932Z,25.11
2022-08-03T16:49:54.499Z,25.20
2022-08-03T16:52:23.365Z,25.30
2022-08-03T16:54:50.643Z,25.42
2022-08-03T16:57:58.304Z,25.17
2022-08-03T17:00:08.892Z,25.09
2022-08-03T17:02:36.384Z,24.89
2022-08-03T17:05:03.207Z,24.89
2022-08-03T17:07:30.395Z,24.84
2022-08-03T17:09:57.478Z,24.72
2022-08-03T17:12:27.092Z,24.82
2022-08-03T17:14:54.319Z,24.74
2022-08-03T17:17:53.739Z,24.45
2022-08-03T17:20:19.072Z,24.44
2022-08-03T17:22:56.410Z,24.53
2022-08-03T17:26:01.331Z,24.59
2022-08-03T17:28:50.296Z,24.53
2022-08-03T17:31:32.220Z,24.47
2022-08-03T17:34:00.790Z,23.90
2022-08-03T17:36:47.659Z,23.67
2022-08-03T17:39:16.587Z,23.60
2022-08-03T17:41:49.153Z,23.49
2022-08-03T17:44:35.240Z,23.19
2022-08-03T17:47:04.693Z,23.01
2022-08-03T17:49:33.134Z,22.88
2022-08-03T17:52:54.749Z,22.88
2022-08-03T17:55:56.227Z,22.63
2022-08-03T17:58:14.937Z,22.86
2022-08-03T18:01:02.188Z,22.99
2022-08-03T18:03:57.988Z,22.99
2022-08-03T18:06:29.523Z,22.93
2022-08-03T18:09:04.837Z,22.71
2022-08-03T18:11:46.096Z,22.69
2022-08-03T18:14:23.859Z,22.42
2022-08-03T18:16:57.848Z,22.46
2022-08-03T18:20:03.506Z,22.39
2022-08-03T18:22:14.199Z,22.22
2022-08-03T18:24:42.186Z,22.34
2022-08-03T18:27:10.628Z,21.89
2022-08-03T18:29:37.441Z,21.73
2022-08-03T18:32:11.388Z,21.64
2022-08-03T18:34:41.132Z,21.75
2022-08-03T18:37:25.247Z,21.66
2022-08-03T18:39:55.008Z,21.43
2022-08-03T18:45:54.893Z,21.35
2022-08-03T18:48:02.411Z,21.41
2022-08-03T18:50:41.195Z,21.29
2022-08-03T18:53:20.076Z,21.20
2022-08-03T18:56:08.216Z,21.41
2022-08-03T18:58:52.296Z,21.31
2022-08-03T19:02:00.881Z,21.07
2022-08-03T19:04:27.482Z,20.90
2022-08-03T19:07:08.315Z,20.74
2022-08-03T19:09:49.625Z,20.86
2022-08-03T19:12:28.209Z,20.91
2022-08-03T19:15:03.064Z,20.88
2022-08-03T19:17:29.915Z,20.83
2022-08-03T19:19:57.708Z,20.37
2022-08-03T19:22:27.173Z,20.29
2022-08-03T19:24:57.862Z,20.17
2022-08-03T19:27:26.884Z,20.14
2022-08-03T19:29:58.718Z,20.21
2022-08-03T19:32:28.855Z,20.19
2022-08-03T19:34:56.845Z,20.25
2022-08-03T19:37:27.490Z,20.28
2022-08-03T19:40:10.933Z,20.29
2022-08-03T19:42:41.352Z,20.22
2022-08-03T19:45:11.461Z,19.91
2022-08-03T19:47:52.693Z,19.89
2022-08-03T19:50:20.359Z,19.65
2022-08-03T19:52:47.857Z,19.79
2022-08-03T19:55:15.795Z,19.77
2022-08-03T19:57:45.689Z,19.86
2022-08-03T20:00:14.003Z,19.77
2022-08-03T20:02:41.260Z,19.74
2022-08-03T20:05:14.732Z,19.63
2022-08-03T20:07:42.612Z,19.56
2022-08-03T20:10:15.346Z,19.40
2022-08-03T20:12:43.327Z,19.32
2022-08-03T20:15:10.628Z,19.24
2022-08-03T20:17:56.884Z,18.99
2022-08-03T20:20:29.564Z,19.02
2022-08-03T20:22:58.013Z,19.11
2022-08-03T20:25:38.125Z,19.15
2022-08-03T20:28:13.476Z,18.98
2022-08-03T20:33:46.733Z,18.64
2022-08-03T20:36:17.842Z,18.68
2022-08-03T20:38:46.960Z,18.86
2022-08-03T20:41:17.014Z,18.88
2022-08-03T20:43:43.942Z,18.90
2022-08-03T20:46:31.293Z,18.95
2022-08-03T20:48:58.871Z,18.97
2022-08-03T20:51:49.926Z,18.94
2022-08-03T20:54:28.736Z,19.00
2022-08-03T20:56:57.705Z,18.95
2022-08-03T20:59:28.778Z,18.87
2022-08-03T21:01:57.066Z,18.80
2022-08-03T21:04:24.215Z,18.69
2022-08-03T21:07:01.044Z,18.62
2022-08-03T21:09:39.950Z,18.61
2022-08-03T21:12:13.035Z,18.64
2022-08-03T21:12:58.870Z,21.50
2022-08-03T21:13:07.090Z,18.59
2022-08-03T21:15:02.420Z,18.61
2022-08-03T21:17:40.440Z,18.54
2022-08-03T21:20:09.518Z,18.33
2022-08-03T21:22:38.065Z,18.16
2022-08-03T21:25:09.187Z,17.80
2022-08-03T21:27:36.925Z,17.85
2022-08-03T21:30:06.720Z,18.12
2022-08-03T21:32:33.592Z,18.10
2022-08-03T21:35:01.313Z,18.05
2022-08-03T21:37:28.949Z,17.58
2022-08-03T21:39:56.674Z,17.28
2022-08-03T21:42:26.757Z,17.62
2022-08-03T21:44:55.503Z,17.46
2022-08-03T21:47:23.525Z,17.64
2022-08-03T21:50:06.384Z,17.76
2022-08-03T21:52:40.034Z,17.69
2022-08-03T21:55:07.307Z,17.59
2022-08-03T21:57:34.688Z,17.40
2022-08-03T22:00:16.690Z,17.21
2022-08-03T22:02:53.189Z,17.52
2022-08-03T22:05:42.903Z,17.58
2022-08-03T22:08:12.172Z,17.66
2022-08-03T22:10:39.017Z,17.67
2022-08-03T22:13:05.596Z,17.52
2022-08-03T22:15:32.459Z,17.48
2022-08-03T22:17:59.173Z,17.50
2022-08-03T22:20:25.998Z,17.49
2022-08-03T22:22:55.869Z,17.29
2022-08-03T22:25:29.738Z,17.18
2022-08-03T22:27:57.012Z,17.25
2022-08-03T22:30:23.600Z,17.34
2022-08-03T22:32:52.963Z,17.24
2022-08-03T22:35:20.738Z,17.21
2022-08-03T22:37:49.125Z,17.20
2022-08-03T22:40:16.683Z,17.16
2022-08-03T22:42:45.659Z,17.13
2022-08-03T22:45:12.476Z,17.03
2022-08-03T22:47:59.783Z,16.94
2022-08-03T22:50:32.562Z,16.95
2022-08-03T22:53:00.355Z,16.74
2022-08-03T22:55:27.293Z,16.65
2022-08-03T22:57:56.119Z,16.66
2022-08-03T23:00:23.364Z,16.13
2022-08-03T23:02:51.280Z,15.78
2022-08-03T23:06:01.185Z,15.47
2022-08-03T23:08:10.016Z,15.83
2022-08-03T23:10:37.173Z,16.31
2022-08-03T23:13:03.673Z,16.51
2022-08-03T23:15:30.648Z,16.56
2022-08-03T23:17:58.745Z,16.59
2022-08-03T23:20:26.836Z,16.73
2022-08-03T23:22:54.811Z,16.68
2022-08-03T23:25:21.959Z,16.68
2022-08-03T23:27:49.300Z,16.65
2022-08-03T23:30:34.052Z,16.63
2022-08-03T23:33:01.040Z,16.36
2022-08-03T23:36:27.886Z,16.16
2022-08-03T23:38:36.832Z,16.30
2022-08-03T23:41:04.832Z,15.70
2022-08-03T23:43:51.115Z,15.79
2022-08-03T23:46:19.746Z,16.35
2022-08-03T23:48:46.381Z,16.45
2022-08-03T23:51:42.408Z,16.51
2022-08-03T23:54:21.018Z,16.50
2022-08-03T23:57:28.897Z,16.46
